Time;durP1;ratioP1;P1;durP2;ratioP2;P2;SDS_P1;SDS_P2;PMS_P1;PMS_P2;Temp;Humidity;BMP_temperature;BMP_pressure;BME280_temperature;BME280_humidity;BME280_pressure;Samples;Min_cycle;Max_cycle;Signal;HPM_P1;HPM_P2
2021/10/23 00:00:26;;;;;;;58.30;54.33;;;;;;;;;;5074592;28;20231;-85
2021/10/23 00:02:54;;;;;;;61.15;56.83;;;;;;;;;;5075308;28;20199;-85
2021/10/23 00:05:21;;;;;;;63.85;59.60;;;;;;;;;;5074712;28;20191;-86
2021/10/23 00:07:50;;;;;;;61.08;57.25;;;;;;;;;;5074884;28;20193;-85
2021/10/23 00:10:17;;;;;;;57.65;54.03;;;;;;;;;;5075193;28;20192;-84
2021/10/23 00:12:45;;;;;;;57.25;53.40;;;;;;;;;;5074612;28;20199;-83
2021/10/23 00:15:12;;;;;;;56.92;53.35;;;;;;;;;;5074615;28;20219;-84
2021/10/23 00:17:40;;;;;;;57.75;54.10;;;;;;;;;;5074263;28;20235;-85
2021/10/23 00:20:07;;;;;;;62.70;58.35;;;;;;;;;;5073471;28;20204;-85
2021/10/23 00:22:35;;;;;;;57.55;54.13;;;;;;;;;;5074407;28;20207;-84
2021/10/23 00:25:04;;;;;;;59.15;55.55;;;;;;;;;;5074319;28;20557;-84
2021/10/23 00:27:32;;;;;;;55.80;52.50;;;;;;;;;;5074057;28;20660;-85
2021/10/23 00:29:59;;;;;;;58.25;54.33;;;;;;;;;;5074372;28;20276;-85
2021/10/23 00:32:27;;;;;;;54.17;50.65;;;;;;;;;;5074184;28;20192;-83
2021/10/23 00:34:54;;;;;;;57.65;54.05;;;;;;;;;;5073793;28;20634;-84
2021/10/23 00:37:21;;;;;;;55.67;52.05;;;;;;;;;;5073422;28;20217;-84
2021/10/23 00:39:49;;;;;;;56.92;53.03;;;;;;;;;;5073905;28;20191;-85
2021/10/23 00:42:18;;;;;;;58.83;55.13;;;;;;;;;;5073963;28;20187;-85
2021/10/23 00:44:46;;;;;;;57.92;53.78;;;;;;;;;;5074044;28;20184;-85
2021/10/23 00:47:16;;;;;;;56.50;53.15;;;;;;;;;;5073880;28;20203;-85
2021/10/23 00:49:43;;;;;;;58.20;54.00;;;;;;;;;;5074056;28;20192;-84
2021/10/23 00:52:11;;;;;;;54.60;51.10;;;;;;;;;;5074029;28;20188;-84
2021/10/23 00:54:39;;;;;;;55.72;52.42;;;;;;;;;;5073963;28;20196;-85
2021/10/23 00:57:07;;;;;;;58.33;54.03;;;;;;;;;;5073649;28;20236;-85
2021/10/23 00:59:36;;;;;;;57.92;54.35;;;;;;;;;;5073903;28;20216;-84
2021/10/23 01:02:04;;;;;;;56.25;52.45;;;;;;;;;;5073783;28;20641;-85
2021/10/23 01:04:31;;;;;;;57.20;53.60;;;;;;;;;;5073284;28;20201;-84
2021/10/23 01:06:59;;;;;;;53.67;50.10;;;;;;;;;;5073611;28;20191;-85
2021/10/23 01:09:26;;;;;;;58.83;55.20;;;;;;;;;;5073867;28;20215;-85
2021/10/23 01:11:54;;;;;;;58.25;54.33;;;;;;;;;;5073534;28;20184;-85
2021/10/23 01:14:23;;;;;;;57.17;53.17;;;;;;;;;;5072484;28;20216;-85
2021/10/23 01:16:53;;;;;;;57.97;54.40;;;;;;;;;;5073760;28;20215;-85
2021/10/23 01:19:20;;;;;;;52.42;49.03;;;;;;;;;;5073860;28;20536;-85
2021/10/23 01:21:50;;;;;;;57.78;54.22;;;;;;;;;;5073837;28;20301;-84
2021/10/23 01:24:18;;;;;;;53.80;49.97;;;;;;;;;;5073466;28;20214;-84
2021/10/23 01:26:45;;;;;;;55.05;51.55;;;;;;;;;;5073646;28;20572;-85
2021/10/23 01:29:13;;;;;;;52.28;48.78;;;;;;;;;;5073287;28;20183;-84
2021/10/23 01:31:41;;;;;;;54.38;50.38;;;;;;;;;;5073565;28;20204;-85
2021/10/23 01:34:12;;;;;;;54.10;50.65;;;;;;;;;;5073798;28;20192;-85
2021/10/23 01:36:43;;;;;;;54.13;50.80;;;;;;;;;;5073190;28;20238;-85
2021/10/23 01:39:12;;;;;;;52.90;49.55;;;;;;;;;;5073361;28;20227;-83
2021/10/23 01:41:40;;;;;;;54.90;51.63;;;;;;;;;;5073269;28;20276;-85
2021/10/23 01:44:08;;;;;;;53.55;50.08;;;;;;;;;;5073356;28;20232;-83
2021/10/23 01:46:36;;;;;;;54.10;50.45;;;;;;;;;;5073225;28;20515;-84
2021/10/23 01:49:04;;;;;;;57.10;53.65;;;;;;;;;;5071911;28;20199;-84
2021/10/23 01:51:32;;;;;;;56.20;52.28;;;;;;;;;;5073054;28;20196;-84
2021/10/23 01:53:59;;;;;;;53.50;50.10;;;;;;;;;;5073189;28;20552;-83
2021/10/23 01:56:28;;;;;;;56.17;52.88;;;;;;;;;;5073015;28;20188;-83
2021/10/23 01:58:55;;;;;;;54.58;51.30;;;;;;;;;;5072781;28;20609;-84
2021/10/23 02:01:23;;;;;;;52.75;49.50;;;;;;;;;;5073081;28;20184;-83
2021/10/23 02:03:50;;;;;;;52.08;48.85;;;;;;;;;;5072842;28;20193;-84
2021/10/23 02:06:18;;;;;;;57.15;53.75;;;;;;;;;;5073148;28;20200;-84
2021/10/23 02:08:45;;;;;;;58.70;54.70;;;;;;;;;;5072936;28;20207;-83
2021/10/23 02:11:13;;;;;;;56.55;53.10;;;;;;;;;;5072621;28;20188;-83
2021/10/23 02:13:42;;;;;;;57.90;53.63;;;;;;;;;;5072497;28;20689;-84
2021/10/23 02:16:09;;;;;;;57.08;53.45;;;;;;;;;;5075115;28;20196;-84
2021/10/23 02:18:38;;;;;;;54.53;50.90;;;;;;;;;;5076770;28;20216;-84
2021/10/23 02:21:07;;;;;;;51.70;48.35;;;;;;;;;;5076493;28;20548;-84
2021/10/23 02:23:34;;;;;;;51.88;48.35;;;;;;;;;;5076635;28;20188;-84
2021/10/23 02:26:01;;;;;;;50.63;46.90;;;;;;;;;;5076164;28;20207;-84
2021/10/23 02:28:29;;;;;;;52.60;48.95;;;;;;;;;;5076449;28;20195;-84
2021/10/23 02:30:58;;;;;;;52.28;48.55;;;;;;;;;;5076314;28;20190;-84
2021/10/23 02:33:25;;;;;;;50.83;47.83;;;;;;;;;;5076531;28;20208;-84
2021/10/23 02:35:52;;;;;;;51.80;48.40;;;;;;;;;;5076057;28;20191;-84
2021/10/23 02:38:20;;;;;;;52.00;48.45;;;;;;;;;;5076020;28;20228;-84
2021/10/23 02:40:47;;;;;;;51.60;48.50;;;;;;;;;;5075990;28;20188;-84
2021/10/23 02:43:15;;;;;;;54.83;51.63;;;;;;;;;;5075960;28;20188;-84
2021/10/23 02:45:42;;;;;;;51.72;48.40;;;;;;;;;;5075876;28;20657;-83
2021/10/23 02:48:11;;;;;;;52.42;48.90;;;;;;;;;;5075966;28;20191;-84
2021/10/23 02:50:39;;;;;;;59.15;55.35;;;;;;;;;;5076166;28;20187;-84
2021/10/23 02:53:06;;;;;;;53.88;50.63;;;;;;;;;;5076037;28;20217;-83
2021/10/23 02:55:33;;;;;;;52.38;49.00;;;;;;;;;;5075812;28;20188;-83
2021/10/23 02:58:01;;;;;;;51.33;47.95;;;;;;;;;;5075359;28;20235;-84
2021/10/23 03:00:28;;;;;;;54.55;51.42;;;;;;;;;;5075481;28;20668;-84
2021/10/23 03:02:56;;;;;;;53.17;49.95;;;;;;;;;;5075669;28;20195;-84
2021/10/23 03:05:25;;;;;;;53.90;50.65;;;;;;;;;;5075500;28;20672;-83
2021/10/23 03:07:52;;;;;;;53.33;49.92;;;;;;;;;;5075577;28;20231;-84
2021/10/23 03:10:19;;;;;;;54.15;51.10;;;;;;;;;;5075267;28;20196;-84
2021/10/23 03:12:47;;;;;;;49.38;46.15;;;;;;;;;;5075310;28;20236;-84
2021/10/23 03:15:14;;;;;;;51.05;47.85;;;;;;;;;;5075223;28;20184;-84
2021/10/23 03:17:42;;;;;;;51.90;48.50;;;;;;;;;;5073959;28;20273;-84
2021/10/23 03:20:10;;;;;;;53.63;49.97;;;;;;;;;;5075736;28;20190;-84
2021/10/23 03:22:38;;;;;;;54.22;50.53;;;;;;;;;;5075476;28;20199;-84
2021/10/23 03:25:06;;;;;;;54.72;50.90;;;;;;;;;;5075809;28;20626;-86
2021/10/23 03:27:34;;;;;;;56.55;52.92;;;;;;;;;;5074765;28;20222;-85
2021/10/23 03:30:01;;;;;;;58.53;54.83;;;;;;;;;;5075779;28;20192;-85
2021/10/23 03:32:28;;;;;;;56.60;52.40;;;;;;;;;;5075637;28;20265;-85
2021/10/23 03:34:59;;;;;;;53.03;49.53;;;;;;;;;;5075247;28;20619;-85
2021/10/23 03:37:27;;;;;;;51.42;48.33;;;;;;;;;;5075545;28;20192;-85
2021/10/23 03:39:55;;;;;;;53.38;49.30;;;;;;;;;;5075478;28;20207;-85
2021/10/23 03:42:23;;;;;;;55.17;50.50;;;;;;;;;;5075391;28;20189;-85
2021/10/23 03:44:50;;;;;;;54.95;50.55;;;;;;;;;;5075532;28;20200;-85
2021/10/23 03:47:18;;;;;;;56.47;51.20;;;;;;;;;;5075201;28;20192;-85
2021/10/23 03:49:45;;;;;;;56.72;51.78;;;;;;;;;;5074986;28;20196;-85
2021/10/23 03:52:13;;;;;;;57.20;52.03;;;;;;;;;;5075239;28;20194;-84
2021/10/23 03:54:41;;;;;;;56.80;51.58;;;;;;;;;;5075167;28;20189;-85
2021/10/23 03:57:10;;;;;;;58.63;52.85;;;;;;;;;;5074897;28;20237;-85
2021/10/23 03:59:38;;;;;;;65.82;59.63;;;;;;;;;;5075257;28;20221;-84
2021/10/23 04:02:05;;;;;;;58.17;52.75;;;;;;;;;;5075070;28;20271;-85
2021/10/23 04:04:33;;;;;;;58.38;53.33;;;;;;;;;;5074729;28;20188;-85
2021/10/23 04:07:01;;;;;;;58.10;53.10;;;;;;;;;;5075018;28;20221;-84
2021/10/23 04:09:28;;;;;;;58.08;53.00;;;;;;;;;;5075323;28;20218;-85
2021/10/23 04:11:55;;;;;;;60.05;54.67;;;;;;;;;;5075030;28;20618;-85
2021/10/23 04:14:24;;;;;;;66.00;59.40;;;;;;;;;;5075015;28;20608;-86
2021/10/23 04:16:52;;;;;;;64.10;59.17;;;;;;;;;;5074512;28;20195;-85
2021/10/23 04:19:19;;;;;;;57.85;53.17;;;;;;;;;;5074370;28;20228;-85
2021/10/23 04:21:47;;;;;;;60.55;55.47;;;;;;;;;;5074402;28;20206;-85
2021/10/23 04:24:14;;;;;;;58.95;54.65;;;;;;;;;;5074221;28;20189;-85
2021/10/23 04:26:41;;;;;;;58.78;54.20;;;;;;;;;;5074261;28;20197;-86
2021/10/23 04:29:09;;;;;;;58.80;53.22;;;;;;;;;;5074405;28;20226;-84
2021/10/23 04:31:38;;;;;;;58.60;53.15;;;;;;;;;;5074120;28;20185;-83
2021/10/23 04:34:05;;;;;;;60.65;54.72;;;;;;;;;;5074236;28;20202;-85
2021/10/23 04:36:33;;;;;;;57.38;52.88;;;;;;;;;;5074191;28;20217;-84
2021/10/23 04:39:01;;;;;;;56.15;51.42;;;;;;;;;;5072988;28;20681;-84
2021/10/23 04:41:28;;;;;;;57.90;52.28;;;;;;;;;;5072916;28;20199;-84
2021/10/23 04:43:55;;;;;;;59.08;54.08;;;;;;;;;;5074361;28;20196;-85
2021/10/23 04:46:23;;;;;;;55.90;51.33;;;;;;;;;;5073945;28;20652;-84
2021/10/23 04:48:52;;;;;;;59.40;54.88;;;;;;;;;;5073700;28;20203;-83
2021/10/23 04:51:19;;;;;;;56.05;50.50;;;;;;;;;;5073812;28;20205;-84
2021/10/23 04:53:46;;;;;;;56.97;52.80;;;;;;;;;;5074037;28;20196;-85
2021/10/23 04:56:14;;;;;;;53.50;49.25;;;;;;;;;;5072486;28;20602;-84
2021/10/23 04:58:41;;;;;;;53.08;48.65;;;;;;;;;;5073340;28;20267;-83
2021/10/23 05:01:09;;;;;;;55.90;51.70;;;;;;;;;;5073579;28;20199;-85
2021/10/23 05:03:36;;;;;;;56.25;51.22;;;;;;;;;;5073469;28;20189;-84
2021/10/23 05:06:05;;;;;;;55.75;51.33;;;;;;;;;;5073990;28;20215;-84
2021/10/23 05:08:32;;;;;;;53.65;49.28;;;;;;;;;;5073192;28;20197;-84
2021/10/23 05:11:00;;;;;;;58.40;52.80;;;;;;;;;;5073576;28;20193;-84
2021/10/23 05:13:27;;;;;;;53.55;48.95;;;;;;;;;;5073707;28;20724;-84
2021/10/23 05:15:54;;;;;;;56.40;51.53;;;;;;;;;;5073531;28;20191;-84
2021/10/23 05:18:22;;;;;;;58.30;52.88;;;;;;;;;;5073309;28;20223;-83
2021/10/23 05:20:49;;;;;;;59.50;54.83;;;;;;;;;;5073382;28;20225;-84
2021/10/23 05:23:18;;;;;;;53.67;49.20;;;;;;;;;;5073727;28;20207;-85
2021/10/23 05:25:45;;;;;;;59.90;52.97;;;;;;;;;;5073746;28;20186;-84
2021/10/23 05:28:13;;;;;;;56.10;51.35;;;;;;;;;;5072953;28;20222;-84
2021/10/23 05:30:40;;;;;;;60.60;55.20;;;;;;;;;;5073273;28;20192;-82
2021/10/23 05:33:08;;;;;;;61.17;53.80;;;;;;;;;;5073579;28;20199;-84
2021/10/23 05:35:35;;;;;;;57.75;52.00;;;;;;;;;;5072960;28;20196;-83
2021/10/23 05:38:03;;;;;;;57.40;52.47;;;;;;;;;;5072879;28;20199;-83
2021/10/23 05:40:32;;;;;;;61.42;55.30;;;;;;;;;;5073136;28;20271;-84
2021/10/23 05:42:59;;;;;;;54.17;50.25;;;;;;;;;;5072834;28;20192;-84
2021/10/23 05:45:27;;;;;;;55.60;50.47;;;;;;;;;;5073165;28;20243;-84
2021/10/23 05:47:54;;;;;;;60.22;55.63;;;;;;;;;;5072580;28;20197;-83
2021/10/23 05:50:22;;;;;;;62.42;57.40;;;;;;;;;;5073858;28;20648;-84
2021/10/23 05:52:49;;;;;;;61.03;56.50;;;;;;;;;;5077410;28;20202;-84
2021/10/23 05:55:16;;;;;;;62.22;57.20;;;;;;;;;;5076796;28;20203;-83
2021/10/23 05:57:45;;;;;;;65.32;59.83;;;;;;;;;;5076638;28;20223;-83
2021/10/23 06:00:14;;;;;;;66.05;60.20;;;;;;;;;;5076393;28;20231;-84
2021/10/23 06:02:42;;;;;;;66.50;61.03;;;;;;;;;;5076850;28;20275;-84
2021/10/23 06:05:10;;;;;;;65.80;60.35;;;;;;;;;;5076821;28;20188;-84
2021/10/23 06:07:38;;;;;;;65.78;59.63;;;;;;;;;;5076981;28;20261;-83
2021/10/23 06:10:07;;;;;;;93.28;62.25;;;;;;;;;;5077293;28;20258;-84
2021/10/23 06:12:35;;;;;;;72.80;59.70;;;;;;;;;;5076728;28;20224;-84
2021/10/23 06:15:04;;;;;;;224.57;73.90;;;;;;;;;;5076879;28;20211;-84
2021/10/23 06:17:32;;;;;;;168.93;71.38;;;;;;;;;;5076924;28;20188;-84
2021/10/23 06:20:00;;;;;;;163.93;80.65;;;;;;;;;;5076633;28;20228;-84
2021/10/23 06:22:28;;;;;;;222.00;82.30;;;;;;;;;;5076596;28;20273;-84
2021/10/23 06:24:55;;;;;;;330.45;134.77;;;;;;;;;;5076443;28;20608;-84
2021/10/23 06:27:23;;;;;;;353.55;96.40;;;;;;;;;;5076280;28;20189;-85
2021/10/23 06:29:50;;;;;;;357.98;94.75;;;;;;;;;;5076533;28;20197;-84
2021/10/23 06:32:19;;;;;;;341.58;93.30;;;;;;;;;;5076407;28;20189;-85
2021/10/23 06:34:46;;;;;;;202.45;87.93;;;;;;;;;;5077024;28;20212;-83
2021/10/23 06:37:18;;;;;;;230.27;83.85;;;;;;;;;;5076564;28;20214;-89
2021/10/23 06:39:45;;;;;;;219.02;84.63;;;;;;;;;;5076507;28;20225;-87
2021/10/23 06:42:12;;;;;;;190.43;80.20;;;;;;;;;;5076666;28;20208;-84
2021/10/23 06:44:40;;;;;;;160.38;81.35;;;;;;;;;;5075693;28;20211;-85
2021/10/23 06:47:07;;;;;;;194.10;91.60;;;;;;;;;;5075401;28;20193;-84
2021/10/23 06:49:36;;;;;;;232.38;101.97;;;;;;;;;;5075129;28;20203;-88
2021/10/23 06:52:03;;;;;;;276.95;109.30;;;;;;;;;;5076360;28;20197;-88
2021/10/23 06:54:31;;;;;;;307.92;116.10;;;;;;;;;;5076618;28;20188;-89
2021/10/23 06:56:58;;;;;;;312.83;102.35;;;;;;;;;;5076008;28;20201;-86
2021/10/23 06:59:25;;;;;;;184.85;86.43;;;;;;;;;;5076190;28;20216;-88
2021/10/23 07:01:55;;;;;;;266.70;99.15;;;;;;;;;;5075483;28;20195;-88
2021/10/23 07:04:22;;;;;;;313.52;88.68;;;;;;;;;;5075973;28;20291;-83
2021/10/23 07:06:51;;;;;;;470.83;160.63;;;;;;;;;;5075606;28;20197;-83
2021/10/23 07:09:18;;;;;;;229.80;99.47;;;;;;;;;;5075342;28;20267;-84
2021/10/23 07:11:46;;;;;;;196.75;85.40;;;;;;;;;;5075637;28;20193;-87
2021/10/23 07:14:14;;;;;;;174.43;78.35;;;;;;;;;;5075878;28;20274;-86
2021/10/23 07:16:41;;;;;;;187.38;99.47;;;;;;;;;;5074894;28;20292;-86
2021/10/23 07:19:09;;;;;;;231.65;96.25;;;;;;;;;;5075150;28;20583;-86
2021/10/23 07:21:36;;;;;;;260.25;107.90;;;;;;;;;;5075698;28;20997;-87
2021/10/23 07:24:06;;;;;;;280.00;91.30;;;;;;;;;;5075621;28;20240;-86
2021/10/23 07:26:33;;;;;;;172.30;92.20;;;;;;;;;;5074374;28;20252;-86
2021/10/23 07:29:01;;;;;;;262.27;103.45;;;;;;;;;;5075707;28;20580;-88
2021/10/23 07:31:28;;;;;;;118.20;79.78;;;;;;;;;;5075649;28;20191;-88
2021/10/23 07:33:56;;;;;;;166.23;81.40;;;;;;;;;;5076197;28;20206;-89
2021/10/23 07:36:23;;;;;;;199.60;80.00;;;;;;;;;;5075453;28;20199;-84
2021/10/23 07:38:50;;;;;;;114.28;73.85;;;;;;;;;;5074822;28;20225;-84
2021/10/23 07:41:19;;;;;;;207.65;83.15;;;;;;;;;;5057684;28;20270;-84
2021/10/23 07:43:47;;;;;;;146.30;79.50;;;;;;;;;;5074592;28;20240;-84
2021/10/23 07:46:15;;;;;;;104.53;73.55;;;;;;;;;;5074845;28;20222;-83
2021/10/23 07:48:43;;;;;;;95.05;70.85;;;;;;;;;;5074630;28;20698;-84
2021/10/23 07:51:12;;;;;;;152.48;78.97;;;;;;;;;;5074632;28;20201;-84
2021/10/23 07:53:39;;;;;;;101.47;73.75;;;;;;;;;;5074755;28;20310;-84
2021/10/23 07:56:07;;;;;;;140.57;76.32;;;;;;;;;;5074666;28;20205;-83
2021/10/23 07:58:36;;;;;;;111.03;66.32;;;;;;;;;;5074134;28;20601;-86
2021/10/23 08:01:03;;;;;;;119.65;70.25;;;;;;;;;;5074406;28;20281;-83
2021/10/23 08:03:31;;;;;;;110.57;67.35;;;;;;;;;;5074775;28;20201;-83
2021/10/23 08:05:58;;;;;;;123.90;70.18;;;;;;;;;;5074514;28;20187;-88
2021/10/23 08:08:25;;;;;;;122.32;74.85;;;;;;;;;;5074615;28;20201;-84
2021/10/23 08:10:53;;;;;;;113.80;67.20;;;;;;;;;;5074277;28;20197;-84
2021/10/23 08:13:20;;;;;;;140.38;72.80;;;;;;;;;;5073889;28;20219;-84
2021/10/23 08:15:49;;;;;;;124.05;69.50;;;;;;;;;;5074545;28;20197;-83
2021/10/23 08:18:17;;;;;;;108.05;65.93;;;;;;;;;;5073706;28;20193;-83
2021/10/23 08:20:45;;;;;;;89.15;64.95;;;;;;;;;;5073813;28;20221;-83
2021/10/23 08:23:13;;;;;;;106.93;67.75;;;;;;;;;;5073946;28;20276;-84
2021/10/23 08:25:40;;;;;;;98.72;65.72;;;;;;;;;;5073962;28;20194;-85
2021/10/23 08:28:08;;;;;;;104.28;63.47;;;;;;;;;;5073895;28;20190;-85
2021/10/23 08:30:35;;;;;;;103.07;67.80;;;;;;;;;;5074374;28;20206;-84
2021/10/23 08:33:04;;;;;;;102.65;68.20;;;;;;;;;;5074307;28;20197;-85
2021/10/23 08:35:32;;;;;;;79.32;62.35;;;;;;;;;;5074478;28;20196;-86
2021/10/23 08:37:59;;;;;;;89.20;68.13;;;;;;;;;;5074569;28;20266;-85
2021/10/23 08:40:27;;;;;;;78.63;63.70;;;;;;;;;;5074070;28;20229;-86
2021/10/23 08:42:55;;;;;;;74.47;57.40;;;;;;;;;;5074172;28;20244;-86
2021/10/23 08:45:23;;;;;;;86.20;61.40;;;;;;;;;;5074003;28;20189;-85
2021/10/23 08:47:51;;;;;;;76.65;59.03;;;;;;;;;;5073966;28;20190;-85
2021/10/23 08:50:22;;;;;;;68.55;59.67;;;;;;;;;;5074291;28;20634;-85
2021/10/23 08:52:52;;;;;;;78.93;62.88;;;;;;;;;;5074262;28;20192;-85
2021/10/23 08:55:20;;;;;;;81.20;58.85;;;;;;;;;;5073936;28;20722;-87
2021/10/23 08:57:47;;;;;;;68.25;57.53;;;;;;;;;;5073449;28;20240;-84
2021/10/23 09:00:15;;;;;;;70.68;57.33;;;;;;;;;;5073948;28;20575;-84
2021/10/23 09:02:43;;;;;;;83.53;57.88;;;;;;;;;;5072835;28;20199;-86
2021/10/23 09:05:10;;;;;;;95.88;62.53;;;;;;;;;;5072384;28;20292;-85
2021/10/23 09:07:44;;;;;;;98.80;60.58;;;;;;;;;;5073655;28;20187;-85
2021/10/23 09:10:11;;;;;;;81.05;59.33;;;;;;;;;;5073801;28;20188;-85
2021/10/23 09:12:39;;;;;;;78.38;62.25;;;;;;;;;;5073680;28;20222;-84
2021/10/23 09:15:08;;;;;;;70.50;55.75;;;;;;;;;;5073827;28;20598;-84
2021/10/23 09:17:35;;;;;;;82.18;59.67;;;;;;;;;;5073606;28;20513;-84
2021/10/23 09:20:07;;;;;;;73.22;56.25;;;;;;;;;;5073751;28;20221;-85
2021/10/23 09:22:38;;;;;;;72.07;54.88;;;;;;;;;;5073569;28;20209;-84
2021/10/23 09:25:16;;;;;;;67.53;52.20;;;;;;;;;;5072853;28;20205;-85
2021/10/23 09:27:46;;;;;;;73.05;57.55;;;;;;;;;;5072911;28;20268;-85
2021/10/23 09:30:14;;;;;;;80.25;55.38;;;;;;;;;;5073538;28;20537;-84
2021/10/23 09:32:42;;;;;;;72.35;52.92;;;;;;;;;;5073679;28;20199;-84
2021/10/23 09:35:13;;;;;;;70.63;53.63;;;;;;;;;;5073665;28;20187;-84
2021/10/23 09:37:40;;;;;;;66.75;52.97;;;;;;;;;;5073564;28;20197;-84
2021/10/23 09:40:08;;;;;;;69.17;54.23;;;;;;;;;;5073319;28;20212;-84
2021/10/23 09:42:37;;;;;;;67.78;50.35;;;;;;;;;;5073560;28;20409;-84
2021/10/23 09:45:06;;;;;;;62.63;46.42;;;;;;;;;;5073439;28;20193;-84
2021/10/23 09:47:34;;;;;;;61.03;47.00;;;;;;;;;;5073178;28;20251;-84
2021/10/23 09:50:10;;;;;;;62.72;47.92;;;;;;;;;;5072880;28;20445;-83
2021/10/23 09:52:53;;;;;;;64.93;46.92;;;;;;;;;;5073306;28;20205;-84
2021/10/23 09:55:21;;;;;;;61.40;48.17;;;;;;;;;;5072878;28;20195;-83
2021/10/23 09:58:05;;;;;;;56.73;48.23;;;;;;;;;;5072769;28;20231;-84
2021/10/23 10:00:33;;;;;;;66.38;48.63;;;;;;;;;;5072609;28;20484;-84
2021/10/23 10:03:02;;;;;;;64.10;47.50;;;;;;;;;;5073130;28;20199;-84
2021/10/23 10:05:33;;;;;;;54.67;45.27;;;;;;;;;;5072885;28;20195;-84
2021/10/23 10:08:01;;;;;;;61.43;45.33;;;;;;;;;;5073144;28;20473;-84
2021/10/23 10:10:28;;;;;;;61.33;47.17;;;;;;;;;;5073078;28;20408;-84
2021/10/23 10:12:57;;;;;;;64.53;45.28;;;;;;;;;;5072692;28;20226;-84
2021/10/23 10:15:25;;;;;;;50.13;42.90;;;;;;;;;;5072752;28;20188;-84
2021/10/23 10:17:53;;;;;;;52.13;41.55;;;;;;;;;;5072785;28;20233;-84
2021/10/23 10:20:21;;;;;;;42.95;38.25;;;;;;;;;;5072840;28;20783;-85
2021/10/23 10:22:52;;;;;;;43.47;39.30;;;;;;;;;;5072939;28;20667;-85
2021/10/23 10:25:20;;;;;;;54.40;44.00;;;;;;;;;;5072883;28;20223;-84
2021/10/23 10:27:48;;;;;;;50.50;43.05;;;;;;;;;;5072493;28;20195;-84
2021/10/23 10:30:28;;;;;;;56.22;44.00;;;;;;;;;;5072915;28;20199;-84
2021/10/23 10:33:16;;;;;;;49.55;44.20;;;;;;;;;;5072941;28;20199;-85
2021/10/23 10:38:55;;;;;;;57.42;45.55;;;;;;;;;;5075411;28;20256;-84
2021/10/23 10:44:17;;;;;;;45.20;40.30;;;;;;;;;;5076326;28;20198;-84
2021/10/23 10:47:18;;;;;;;49.13;40.20;;;;;;;;;;5076129;28;20932;-84
2021/10/23 10:49:53;;;;;;;43.85;39.13;;;;;;;;;;5075781;28;20226;-85
2021/10/23 10:52:38;;;;;;;50.25;42.10;;;;;;;;;;5075345;28;20793;-83
2021/10/23 10:55:12;;;;;;;42.80;38.05;;;;;;;;;;5065895;28;20206;-84
2021/10/23 10:57:54;;;;;;;40.65;36.67;;;;;;;;;;5075155;28;20709;-84
2021/10/23 11:00:21;;;;;;;42.05;36.00;;;;;;;;;;5075911;28;20222;-84
2021/10/23 11:02:49;;;;;;;42.78;38.03;;;;;;;;;;5075993;28;20188;-84
2021/10/23 11:05:21;;;;;;;39.78;36.05;;;;;;;;;;5075833;28;20660;-84
2021/10/23 11:08:11;;;;;;;38.57;34.57;;;;;;;;;;5075676;28;20199;-84
2021/10/23 11:10:57;;;;;;;40.15;36.33;;;;;;;;;;5075166;28;20458;-85
2021/10/23 11:13:25;;;;;;;39.50;35.50;;;;;;;;;;5075378;28;20226;-84
2021/10/23 11:15:52;;;;;;;39.03;35.08;;;;;;;;;;5075235;28;20687;-84
2021/10/23 11:18:20;;;;;;;33.42;30.13;;;;;;;;;;5076491;28;20194;-84
2021/10/23 11:20:49;;;;;;;33.17;29.80;;;;;;;;;;5075366;28;20215;-84
2021/10/23 11:23:21;;;;;;;34.17;30.98;;;;;;;;;;5075747;28;20852;-85
2021/10/23 11:25:48;;;;;;;34.73;31.00;;;;;;;;;;5075746;28;20191;-85
2021/10/23 11:28:16;;;;;;;33.92;30.90;;;;;;;;;;5075659;28;20420;-84
2021/10/23 11:30:44;;;;;;;34.17;30.67;;;;;;;;;;5075434;28;20556;-85
2021/10/23 11:33:16;;;;;;;28.63;25.88;;;;;;;;;;5075455;28;20438;-83
2021/10/23 11:35:45;;;;;;;28.35;26.10;;;;;;;;;;5074926;28;20629;-86
2021/10/23 11:38:18;;;;;;;27.73;25.53;;;;;;;;;;5075399;28;20198;-85
2021/10/23 11:40:46;;;;;;;31.08;27.98;;;;;;;;;;5075010;28;20459;-85
2021/10/23 11:43:14;;;;;;;27.85;25.10;;;;;;;;;;5074936;28;20640;-85
2021/10/23 11:45:42;;;;;;;27.65;25.33;;;;;;;;;;5075282;28;20186;-84
2021/10/23 11:48:10;;;;;;;26.45;24.42;;;;;;;;;;5074740;28;20187;-85
2021/10/23 11:50:39;;;;;;;26.23;23.98;;;;;;;;;;5075161;28;20560;-84
2021/10/23 11:53:12;;;;;;;29.97;27.27;;;;;;;;;;5074996;28;20255;-85
2021/10/23 11:55:42;;;;;;;25.88;23.63;;;;;;;;;;5074855;28;20440;-85
2021/10/23 11:58:10;;;;;;;26.60;24.17;;;;;;;;;;5073463;28;20333;-85
2021/10/23 12:00:39;;;;;;;25.40;23.60;;;;;;;;;;5075011;28;20481;-84
2021/10/23 12:03:07;;;;;;;24.43;22.67;;;;;;;;;;5074517;28;20430;-85
2021/10/23 12:05:42;;;;;;;25.17;23.00;;;;;;;;;;5074459;28;20510;-84
2021/10/23 12:08:23;;;;;;;23.37;21.57;;;;;;;;;;5074890;28;20430;-85
2021/10/23 12:11:03;;;;;;;22.73;21.00;;;;;;;;;;5074766;28;20513;-85
2021/10/23 12:13:31;;;;;;;24.20;22.20;;;;;;;;;;5074325;28;20449;-85
2021/10/23 12:16:02;;;;;;;23.67;21.93;;;;;;;;;;5074317;28;20445;-84
2021/10/23 12:18:31;;;;;;;22.40;21.00;;;;;;;;;;5073310;28;20581;-84
2021/10/23 12:21:10;;;;;;;23.10;21.63;;;;;;;;;;5074223;28;20462;-84
2021/10/23 12:23:47;;;;;;;20.83;19.23;;;;;;;;;;5074475;28;20778;-84
2021/10/23 12:26:17;;;;;;;21.95;20.05;;;;;;;;;;5074193;28;20448;-84
2021/10/23 12:29:01;;;;;;;21.17;19.87;;;;;;;;;;5074075;28;20201;-85
2021/10/23 12:31:29;;;;;;;21.53;19.73;;;;;;;;;;5074056;28;20417;-85
2021/10/23 12:34:03;;;;;;;20.03;18.20;;;;;;;;;;5073978;28;20929;-86
2021/10/23 12:36:30;;;;;;;21.20;19.20;;;;;;;;;;5074169;28;20457;-83
2021/10/23 12:39:16;;;;;;;19.70;17.87;;;;;;;;;;5074149;28;20444;-84
2021/10/23 12:41:45;;;;;;;20.17;18.67;;;;;;;;;;5073669;28;20473;-84
2021/10/23 12:44:15;;;;;;;19.83;18.37;;;;;;;;;;5074028;28;20412;-84
2021/10/23 12:46:42;;;;;;;17.80;16.70;;;;;;;;;;5073557;28;20415;-84
2021/10/23 12:49:09;;;;;;;19.17;17.97;;;;;;;;;;5073941;28;20431;-84
2021/10/23 12:51:37;;;;;;;19.27;17.40;;;;;;;;;;5073874;28;20422;-85
2021/10/23 12:54:04;;;;;;;18.50;17.20;;;;;;;;;;5073717;28;20440;-85
2021/10/23 12:56:32;;;;;;;18.27;16.90;;;;;;;;;;5073839;28;20491;-84
2021/10/23 12:59:01;;;;;;;19.07;17.60;;;;;;;;;;5073341;28;20467;-85
2021/10/23 13:01:29;;;;;;;22.40;18.10;;;;;;;;;;5073259;28;20460;-85
2021/10/23 13:03:56;;;;;;;19.10;17.67;;;;;;;;;;5073827;28;20483;-84
2021/10/23 13:06:23;;;;;;;19.20;17.23;;;;;;;;;;5073409;28;20436;-85
2021/10/23 13:08:51;;;;;;;19.77;18.43;;;;;;;;;;5073518;28;20452;-85
2021/10/23 13:11:18;;;;;;;19.97;18.70;;;;;;;;;;5073348;28;20477;-84
2021/10/23 13:13:46;;;;;;;19.37;18.03;;;;;;;;;;5073364;28;20433;-84
2021/10/23 13:16:16;;;;;;;19.83;18.40;;;;;;;;;;5073542;28;20909;-84
2021/10/23 13:18:44;;;;;;;21.23;19.30;;;;;;;;;;5073239;28;20416;-84
2021/10/23 13:21:13;;;;;;;18.40;17.30;;;;;;;;;;5073499;28;20556;-84
2021/10/23 13:23:40;;;;;;;19.30;17.70;;;;;;;;;;5073603;28;20480;-84
2021/10/23 13:26:07;;;;;;;20.53;19.27;;;;;;;;;;5072714;28;20874;-84
2021/10/23 13:28:35;;;;;;;19.93;18.63;;;;;;;;;;5073345;28;20412;-84
2021/10/23 13:31:02;;;;;;;20.20;18.80;;;;;;;;;;5072900;28;20448;-84
2021/10/23 13:33:31;;;;;;;20.07;18.57;;;;;;;;;;5073380;28;20420;-84
2021/10/23 13:35:58;;;;;;;19.00;17.60;;;;;;;;;;5073366;28;20447;-90
2021/10/23 13:38:26;;;;;;;18.53;17.33;;;;;;;;;;5073841;28;20416;-85
2021/10/23 13:40:54;;;;;;;18.73;17.60;;;;;;;;;;5073359;28;20463;-84
2021/10/23 13:43:22;;;;;;;19.40;18.10;;;;;;;;;;5073470;28;20464;-85
2021/10/23 13:45:50;;;;;;;19.47;18.17;;;;;;;;;;5073348;28;20911;-88
2021/10/23 13:48:17;;;;;;;18.90;17.80;;;;;;;;;;5073631;28;20751;-84
2021/10/23 13:50:46;;;;;;;19.27;17.83;;;;;;;;;;5073339;28;20824;-84
2021/10/23 13:53:14;;;;;;;19.57;17.90;;;;;;;;;;5073100;28;20450;-85
2021/10/23 13:55:43;;;;;;;19.93;18.50;;;;;;;;;;5072012;28;20486;-84
2021/10/23 13:58:10;;;;;;;21.57;19.90;;;;;;;;;;5072848;28;20461;-85
2021/10/23 14:00:39;;;;;;;21.07;19.73;;;;;;;;;;5071728;28;20938;-85
2021/10/23 14:03:07;;;;;;;21.97;20.43;;;;;;;;;;5073013;28;20424;-85
2021/10/23 14:05:35;;;;;;;23.40;21.30;;;;;;;;;;5073071;28;20435;-85
2021/10/23 14:08:04;;;;;;;22.30;20.70;;;;;;;;;;5072953;28;20412;-84
2021/10/23 14:10:31;;;;;;;20.40;18.90;;;;;;;;;;5073019;28;20412;-86
2021/10/23 14:12:58;;;;;;;19.87;18.47;;;;;;;;;;5077170;28;20441;-85
2021/10/23 14:15:26;;;;;;;20.27;18.57;;;;;;;;;;5077370;28;20765;-85
2021/10/23 14:17:53;;;;;;;20.73;18.97;;;;;;;;;;5076934;28;20609;-87
2021/10/23 14:20:21;;;;;;;20.80;19.20;;;;;;;;;;5075438;28;20512;-86
2021/10/23 14:22:48;;;;;;;21.40;19.90;;;;;;;;;;5076593;28;20470;-86
2021/10/23 14:25:17;;;;;;;20.30;18.90;;;;;;;;;;5076943;28;20441;-87
2021/10/23 14:27:56;;;;;;;20.17;18.87;;;;;;;;;;5077054;28;20765;-88